createdAt,value
2019-04-06T00:00:50.187Z,86.90
2019-04-06T00:03:29.077Z,96.60
2019-04-06T00:06:07.573Z,95.80
2019-04-06T00:08:45.108Z,95.20
2019-04-06T00:11:22.668Z,95.10
2019-04-06T00:14:00.390Z,94.20
2019-04-06T00:16:38.143Z,84.60
2019-04-06T00:19:15.807Z,84.20
2019-04-06T00:21:53.374Z,84.20
2019-04-06T00:24:31.343Z,83.50
2019-04-06T00:27:08.801Z,83.10
2019-04-06T00:29:46.715Z,83.10
2019-04-06T00:32:30.178Z,82.50
2019-04-06T00:35:07.911Z,82.50
2019-04-06T00:37:45.462Z,82.10
2019-04-06T00:42:58.050Z,91.30
2019-04-06T00:45:36.510Z,91.50
2019-04-06T00:48:15.077Z,89.20
2019-04-06T00:50:52.732Z,90.90
2019-04-06T00:53:32.594Z,90.70
2019-04-06T00:56:10.894Z,90.40
2019-04-06T01:01:23.952Z,90.10
2019-04-06T01:04:01.591Z,90.00
2019-04-06T01:06:39.287Z,90.00
2019-04-06T01:09:17.142Z,89.10
2019-04-06T01:17:06.097Z,88.70
2019-04-06T01:19:43.699Z,82.60
2019-04-06T01:22:22.383Z,87.70
2019-04-06T01:25:00.179Z,88.50
2019-04-06T01:30:14.150Z,75.80
2019-04-06T01:32:52.087Z,74.90
2019-04-06T01:35:32.379Z,89.20
2019-04-06T01:38:10.157Z,87.40
2019-04-06T01:40:47.735Z,88.90
2019-04-06T01:43:26.124Z,74.20
2019-04-06T01:46:04.174Z,73.40
2019-04-06T01:48:41.844Z,74.00
2019-04-06T01:51:19.580Z,73.40
2019-04-06T01:53:57.389Z,86.50
2019-04-06T01:59:11.631Z,83.10
2019-04-06T02:02:09.471Z,84.30
2019-04-06T02:04:47.085Z,83.40
2019-04-06T02:07:24.698Z,82.30
2019-04-06T02:10:02.432Z,83.20
2019-04-06T02:22:54.539Z,80.50
2019-04-06T02:25:32.186Z,67.80
2019-04-06T02:28:09.892Z,79.60
2019-04-06T02:31:03.551Z,66.90
2019-04-06T02:34:03.164Z,65.10
2019-04-06T02:37:16.274Z,63.60
2019-04-06T02:40:07.729Z,73.30
2019-04-06T02:42:48.660Z,63.30
2019-04-06T02:45:26.903Z,76.50
2019-04-06T02:48:05.036Z,63.30
2019-04-06T02:50:42.894Z,62.40
2019-04-06T02:53:20.768Z,72.30
2019-04-06T02:56:06.100Z,72.00
2019-04-06T02:58:43.927Z,74.20
2019-04-06T03:01:21.974Z,71.80
2019-04-06T03:03:59.667Z,71.60
2019-04-06T03:06:37.395Z,59.00
2019-04-06T03:09:15.212Z,58.90
2019-04-06T03:17:05.159Z,70.10
2019-04-06T03:19:43.024Z,68.30
2019-04-06T03:22:20.971Z,56.80
2019-04-06T03:24:58.577Z,57.20
2019-04-06T03:27:36.131Z,54.90
2019-04-06T03:30:15.258Z,54.40
2019-04-06T03:32:53.163Z,54.90
2019-04-06T03:35:31.012Z,53.50
2019-04-06T03:38:09.001Z,53.90
2019-04-06T03:40:46.845Z,54.40
2019-04-06T03:43:24.530Z,54.30
2019-04-06T03:46:02.406Z,54.20
2019-04-06T03:48:40.186Z,52.00
2019-04-06T03:51:17.640Z,49.20
2019-04-06T03:53:55.486Z,49.70
2019-04-06T03:56:33.342Z,77.00
2019-04-06T03:59:10.944Z,51.10
2019-04-06T04:06:59.175Z,56.60
2019-04-06T04:09:37.336Z,63.20
2019-04-06T04:12:14.997Z,64.80
2019-04-06T04:17:29.367Z,71.30
2019-04-06T04:20:07.184Z,59.70
2019-04-06T04:22:45.393Z,59.20
2019-04-06T04:25:23.194Z,56.60
2019-04-06T04:28:00.832Z,56.40
2019-04-06T04:30:39.076Z,71.00
2019-04-06T04:33:16.721Z,56.30
2019-04-06T04:35:54.316Z,70.60
2019-04-06T04:38:31.913Z,69.50
2019-04-06T04:41:09.996Z,71.00
2019-04-06T04:46:23.310Z,70.70
2019-04-06T04:49:00.964Z,71.40
2019-04-06T04:51:38.898Z,71.50
2019-04-06T04:54:16.579Z,66.50
2019-04-06T04:56:54.357Z,70.70
2019-04-06T04:59:32.103Z,70.30
2019-04-06T05:02:11.260Z,66.40
2019-04-06T05:04:48.971Z,67.40
2019-04-06T05:07:26.684Z,71.90
2019-04-06T05:10:04.351Z,73.40
2019-04-06T05:12:42.188Z,76.60
2019-04-06T05:15:24.380Z,63.90
2019-04-06T05:18:02.430Z,64.80
2019-04-06T05:20:40.151Z,64.60
2019-04-06T05:23:18.164Z,91.00
2019-04-06T05:25:56.155Z,75.40
2019-04-06T05:28:33.977Z,75.70
2019-04-06T05:33:47.445Z,63.70
2019-04-06T05:36:25.122Z,77.20
2019-04-06T05:39:03.068Z,63.90
2019-04-06T05:41:41.652Z,64.50
2019-04-06T05:44:19.607Z,70.20
2019-04-06T05:46:57.208Z,67.90
2019-04-06T05:49:35.448Z,64.90
2019-04-06T05:52:13.139Z,79.60
2019-04-06T05:57:26.852Z,79.80
2019-04-06T06:00:04.552Z,80.00
2019-04-06T06:02:42.435Z,83.80
2019-04-06T06:05:20.268Z,87.70
2019-04-06T06:08:00.953Z,71.00
2019-04-06T06:10:38.775Z,70.90
2019-04-06T06:13:16.421Z,70.20
2019-04-06T06:15:54.366Z,70.10
2019-04-06T06:18:33.379Z,83.10
2019-04-06T06:21:11.213Z,83.00
2019-04-06T06:23:49.157Z,70.10
2019-04-06T06:26:27.292Z,91.50
2019-04-06T06:29:04.986Z,71.20
2019-04-06T06:31:42.839Z,70.60
2019-04-06T06:34:20.479Z,70.70
2019-04-06T06:36:58.124Z,69.40
2019-04-06T06:39:36.112Z,84.60
2019-04-06T06:42:14.075Z,67.60
2019-04-06T06:44:51.697Z,66.70
2019-04-06T06:47:29.548Z,66.40
2019-04-06T06:50:07.989Z,67.10
2019-04-06T06:52:45.661Z,68.60
2019-04-06T06:55:23.369Z,82.40
2019-04-06T06:58:01.262Z,83.30
2019-04-06T07:00:39.024Z,84.50
2019-04-06T07:03:20.291Z,85.10
2019-04-06T07:05:57.990Z,84.70
2019-04-06T07:08:35.848Z,71.60
2019-04-06T07:11:13.473Z,72.10
2019-04-06T07:13:51.324Z,72.40
2019-04-06T07:16:28.964Z,72.40
2019-04-06T07:19:06.823Z,72.20
2019-04-06T07:21:44.661Z,72.70
2019-04-06T07:24:22.537Z,72.60
2019-04-06T07:27:00.201Z,73.50
2019-04-06T07:29:37.932Z,73.70
2019-04-06T07:32:16.019Z,73.50
2019-04-06T07:34:53.879Z,73.80
2019-04-06T07:37:31.495Z,91.40
2019-04-06T07:40:10.912Z,73.90
2019-04-06T07:42:48.983Z,74.10
2019-04-06T07:45:26.903Z,74.40
2019-04-06T07:48:04.715Z,74.60
2019-04-06T07:50:42.626Z,74.90
2019-04-06T07:53:21.213Z,75.10
2019-04-06T07:58:34.832Z,74.70
2019-04-06T08:01:13.113Z,75.60
2019-04-06T08:03:50.659Z,75.80
2019-04-06T08:06:28.276Z,76.00
2019-04-06T08:09:07.345Z,91.70
2019-04-06T08:11:46.453Z,76.20
2019-04-06T08:14:24.182Z,76.30
2019-04-06T08:17:01.945Z,76.30
2019-04-06T08:19:39.530Z,76.60
2019-04-06T08:22:17.104Z,77.00
2019-04-06T08:24:54.796Z,77.20
2019-04-06T08:27:32.652Z,93.10
2019-04-06T08:30:12.269Z,77.50
2019-04-06T08:32:50.125Z,92.60
2019-04-06T08:35:28.391Z,77.90
2019-04-06T08:38:06.744Z,78.10
2019-04-06T08:40:44.826Z,93.20
2019-04-06T08:43:22.552Z,78.50
2019-04-06T08:46:00.187Z,79.00
2019-04-06T08:48:38.016Z,93.30
2019-04-06T08:51:15.711Z,80.10
2019-04-06T08:53:53.703Z,80.60
2019-04-06T08:56:32.805Z,81.00
2019-04-06T08:59:13.063Z,81.20
2019-04-06T09:01:50.020Z,81.40
2019-04-06T09:04:28.113Z,81.30
2019-04-06T09:07:05.726Z,94.30
2019-04-06T09:09:44.255Z,81.60
2019-04-06T09:12:21.789Z,81.90
2019-04-06T09:14:59.616Z,82.40
2019-04-06T09:17:37.239Z,82.90
2019-04-06T09:20:15.659Z,84.10
2019-04-06T09:22:53.319Z,85.30
2019-04-06T09:25:32.533Z,85.70
2019-04-06T09:28:10.181Z,85.90
2019-04-06T09:30:47.987Z,86.10
2019-04-06T09:33:25.660Z,86.10
2019-04-06T09:36:03.699Z,95.90
2019-04-06T09:38:41.325Z,86.30
2019-04-06T09:41:19.563Z,86.90
2019-04-06T09:43:57.251Z,87.40
2019-04-06T09:46:43.615Z,95.30
2019-04-06T09:49:30.712Z,94.60
2019-04-06T09:55:22.008Z,94.70
2019-04-06T09:58:23.989Z,95.30
2019-04-06T10:01:08.231Z,94.90
2019-04-06T10:04:04.306Z,95.00
2019-04-06T10:06:57.872Z,94.60
2019-04-06T10:09:53.079Z,94.60
2019-04-06T10:12:48.417Z,94.60
2019-04-06T10:15:34.229Z,94.60
2019-04-06T10:18:47.405Z,94.40
2019-04-06T10:24:36.013Z,91.00
2019-04-06T10:27:32.220Z,93.80
2019-04-06T10:30:21.211Z,93.70
2019-04-06T10:33:09.039Z,93.60
2019-04-06T10:36:02.512Z,93.60
2019-04-06T10:41:46.656Z,93.80
2019-04-06T10:44:38.116Z,93.70
2019-04-06T10:47:24.041Z,93.90
2019-04-06T10:50:16.991Z,94.00
2019-04-06T10:56:21.540Z,93.80
2019-04-06T11:02:09.440Z,84.90
2019-04-06T11:05:01.775Z,93.80
2019-04-06T11:07:56.940Z,93.40
2019-04-06T11:11:07.795Z,93.30
2019-04-06T11:14:07.292Z,93.50
2019-04-06T11:17:08.122Z,83.70
2019-04-06T11:22:53.999Z,93.20
2019-04-06T11:25:49.198Z,93.40
2019-04-06T11:28:45.362Z,93.40
2019-04-06T11:31:42.385Z,93.80
2019-04-06T11:37:37.895Z,94.20
2019-04-06T11:40:47.948Z,94.10
2019-04-06T11:43:37.974Z,94.30
2019-04-06T11:46:34.599Z,94.30
2019-04-06T11:49:20.377Z,94.20
2019-04-06T11:52:30.759Z,94.20
2019-04-06T11:55:20.602Z,94.00
2019-04-06T12:04:08.728Z,94.40
2019-04-06T12:06:52.801Z,94.50
2019-04-06T12:09:53.832Z,94.70
2019-04-06T12:12:43.094Z,94.80
2019-04-06T12:18:26.271Z,95.00
2019-04-06T12:21:30.472Z,95.10
2019-04-06T12:24:20.308Z,95.30
2019-04-06T12:27:14.153Z,95.10
2019-04-06T12:30:14.173Z,95.20
2019-04-06T12:33:12.054Z,95.70
2019-04-06T12:36:05.454Z,96.00
2019-04-06T12:38:58.290Z,95.80
2019-04-06T12:42:08.631Z,92.60
2019-04-06T12:48:11.017Z,96.00
2019-04-06T12:50:59.961Z,96.20
2019-04-06T12:54:04.431Z,92.50
2019-04-06T13:02:50.860Z,95.30
2019-04-06T13:05:48.936Z,94.90
2019-04-06T13:08:35.216Z,95.30
2019-04-06T13:11:30.373Z,94.90
2019-04-06T13:14:20.393Z,94.70
2019-04-06T13:17:14.078Z,94.30
2019-04-06T13:20:10.752Z,85.80
2019-04-06T13:23:15.185Z,94.80
2019-04-06T13:29:11.201Z,84.10
2019-04-06T13:31:56.594Z,94.80
2019-04-06T13:34:52.674Z,85.30
2019-04-06T13:37:45.917Z,85.70
2019-04-06T13:40:50.303Z,85.00
2019-04-06T13:43:51.609Z,84.90
2019-04-06T13:46:58.374Z,84.00
2019-04-06T13:49:42.299Z,82.80
2019-04-06T13:52:43.771Z,82.50
2019-04-06T13:55:49.903Z,82.90
2019-04-06T13:58:40.973Z,82.60
2019-04-06T14:01:34.372Z,82.60
2019-04-06T14:04:28.095Z,95.00
2019-04-06T14:07:22.561Z,83.90
2019-04-06T14:10:17.604Z,85.20
2019-04-06T14:13:21.424Z,86.80
2019-04-06T14:16:06.096Z,87.20
2019-04-06T14:19:10.449Z,86.50
2019-04-06T14:22:00.315Z,88.30
2019-04-06T14:24:55.378Z,90.10
2019-04-06T14:27:50.670Z,90.60
2019-04-06T14:30:48.661Z,91.00
2019-04-06T14:36:26.842Z,98.10
2019-04-06T14:39:22.863Z,98.20
2019-04-06T14:42:20.634Z,98.40
2019-04-06T14:45:31.285Z,98.60
2019-04-06T14:48:32.409Z,98.70
2019-04-06T14:51:23.203Z,98.80
2019-04-06T14:54:18.077Z,98.50
2019-04-06T15:00:07.966Z,98.90
2019-04-06T15:02:59.535Z,98.70
2019-04-06T15:06:03.698Z,98.90
2019-04-06T15:08:51.338Z,98.90
2019-04-06T15:11:52.715Z,98.80
2019-04-06T15:14:39.210Z,98.70
2019-04-06T15:17:35.040Z,98.70
2019-04-06T15:20:36.437Z,98.80
2019-04-06T15:23:40.226Z,98.70
2019-04-06T15:26:34.521Z,98.70
2019-04-06T15:29:32.600Z,98.50
2019-04-06T15:35:26.413Z,98.90
2019-04-06T15:38:20.217Z,98.80
2019-04-06T15:41:09.150Z,98.80
2019-04-06T15:43:54.664Z,99.10
2019-04-06T15:46:49.687Z,98.80
2019-04-06T15:49:32.671Z,98.30
2019-04-06T15:52:26.156Z,99.00
2019-04-06T15:58:05.714Z,98.80
2019-04-06T16:00:56.663Z,98.80
2019-04-06T16:03:43.970Z,98.10
2019-04-06T16:06:38.074Z,99.10
2019-04-06T16:09:31.298Z,98.80
2019-04-06T16:12:28.316Z,98.90
2019-04-06T16:15:22.364Z,98.80
2019-04-06T16:18:32.701Z,98.80
2019-04-06T16:21:20.917Z,99.00
2019-04-06T16:24:31.316Z,98.80
2019-04-06T16:27:25.651Z,98.50
2019-04-06T16:30:29.081Z,99.30
2019-04-06T16:33:12.776Z,98.60
2019-04-06T16:36:09.265Z,98.40
2019-04-06T16:39:03.753Z,98.40
2019-04-06T16:41:58.722Z,98.50
2019-04-06T16:44:42.017Z,98.40
2019-04-06T16:47:46.060Z,98.60
2019-04-06T16:50:39.888Z,98.50
2019-04-06T16:53:41.338Z,98.40
2019-04-06T16:56:30.674Z,98.70
2019-04-06T16:59:34.897Z,98.60
2019-04-06T17:02:44.913Z,98.80
2019-04-06T17:05:37.791Z,98.70
2019-04-06T17:08:32.710Z,98.40
2019-04-06T17:11:21.882Z,98.50
2019-04-06T17:14:15.276Z,97.60
2019-04-06T17:17:16.820Z,98.60
2019-04-06T17:20:17.909Z,98.40
2019-04-06T17:23:06.129Z,98.20
2019-04-06T17:26:01.089Z,98.60
2019-04-06T17:28:48.555Z,98.70
2019-04-06T17:31:36.607Z,98.80
2019-04-06T17:34:21.118Z,99.00
2019-04-06T17:37:22.131Z,98.90
2019-04-06T17:40:15.296Z,99.10
2019-04-06T17:43:08.592Z,99.00
2019-04-06T17:45:56.531Z,98.90
2019-04-06T17:48:57.499Z,98.70
2019-04-06T17:51:46.393Z,99.00
2019-04-06T17:54:44.878Z,99.20
2019-04-06T17:57:55.154Z,99.30
2019-04-06T18:04:17.312Z,99.60
2019-04-06T18:07:31.098Z,99.00
2019-04-06T18:10:19.957Z,99.00
2019-04-06T18:13:13.645Z,99.10
2019-04-06T18:15:51.313Z,99.20
2019-04-06T18:18:29.151Z,99.10
2019-04-06T18:21:06.920Z,99.30
2019-04-06T18:23:45.329Z,99.40
2019-04-06T18:26:23.094Z,99.60
2019-04-06T18:29:00.688Z,99.60
2019-04-06T18:32:02.892Z,99.20
2019-04-06T18:34:41.379Z,99.10
2019-04-06T18:37:40.152Z,99.20
2019-04-06T18:40:28.096Z,97.80
2019-04-06T18:43:06.400Z,99.00
2019-04-06T18:45:44.028Z,98.80
2019-04-06T18:48:21.688Z,99.00
2019-04-06T18:50:59.286Z,99.00
2019-04-06T18:56:12.099Z,98.90
2019-04-06T18:58:50.314Z,99.10
2019-04-06T19:01:27.940Z,99.30
2019-04-06T19:04:05.585Z,99.00
2019-04-06T19:06:44.351Z,95.30
2019-04-06T19:09:24.023Z,98.80
2019-04-06T19:12:00.920Z,98.90
2019-04-06T19:14:38.687Z,99.40
2019-04-06T19:17:16.723Z,99.00
2019-04-06T19:19:54.456Z,96.50
2019-04-06T19:25:07.166Z,98.50
2019-04-06T19:27:45.303Z,98.70
2019-04-06T19:30:25.063Z,98.80
2019-04-06T19:33:02.690Z,95.50
2019-04-06T19:38:16.749Z,98.90
2019-04-06T19:43:29.613Z,97.70
2019-04-06T19:46:07.632Z,98.90
2019-04-06T19:48:45.284Z,98.90
2019-04-06T19:51:23.216Z,98.90
2019-04-06T19:54:00.761Z,92.60
2019-04-06T19:59:13.768Z,99.20
2019-04-06T20:01:51.871Z,98.90
2019-04-06T20:04:29.737Z,98.80
2019-04-06T20:07:07.405Z,99.30
2019-04-06T20:09:45.009Z,99.20
2019-04-06T20:12:25.603Z,98.90
2019-04-06T20:15:03.251Z,98.70
2019-04-06T20:17:40.970Z,98.90
2019-04-06T20:20:18.840Z,99.00
2019-04-06T20:25:31.884Z,98.90
2019-04-06T20:30:44.701Z,98.80
2019-04-06T20:33:23.084Z,98.90
2019-04-06T20:36:00.869Z,99.30
2019-04-06T20:38:39.025Z,99.20
2019-04-06T20:41:16.708Z,97.40
2019-04-06T20:43:55.009Z,99.90
2019-04-06T20:46:34.270Z,99.90
2019-04-06T20:49:11.959Z,93.00
2019-04-06T20:51:49.682Z,93.30
2019-04-06T20:54:27.383Z,93.30
2019-04-06T20:57:05.379Z,93.30
2019-04-06T20:59:43.063Z,93.60
2019-04-06T21:02:20.650Z,99.90
2019-04-06T21:04:58.487Z,93.60
2019-04-06T21:07:36.101Z,93.50
2019-04-06T21:10:13.965Z,97.40
2019-04-06T21:12:52.867Z,94.10
2019-04-06T21:15:30.743Z,93.80
2019-04-06T21:18:09.317Z,93.80
2019-04-06T21:20:47.324Z,93.90
2019-04-06T21:23:26.085Z,93.90
2019-04-06T21:26:03.851Z,93.80
2019-04-06T21:28:42.092Z,93.80
2019-04-06T21:31:19.855Z,93.80
2019-04-06T21:33:57.366Z,99.90
2019-04-06T21:36:35.116Z,93.80
2019-04-06T21:39:13.588Z,93.60
2019-04-06T21:41:51.473Z,93.50
2019-04-06T21:44:29.822Z,93.50
2019-04-06T21:47:08.059Z,93.00
2019-04-06T21:49:45.999Z,92.90
2019-04-06T21:52:23.779Z,92.70
2019-04-06T21:55:01.564Z,92.60
2019-04-06T21:57:40.348Z,92.40
2019-04-06T22:00:24.078Z,92.70
2019-04-06T22:03:01.942Z,99.90
2019-04-06T22:05:39.861Z,92.10
2019-04-06T22:08:17.580Z,99.90
2019-04-06T22:10:55.344Z,91.80
2019-04-06T22:13:33.012Z,99.40
2019-04-06T22:16:11.492Z,99.00
2019-04-06T22:18:49.703Z,98.10
2019-04-06T22:21:27.403Z,97.90
2019-04-06T22:24:05.544Z,98.00
2019-04-06T22:26:43.754Z,97.70
2019-04-06T22:29:22.266Z,95.90
2019-04-06T22:34:39.954Z,96.80
2019-04-06T22:37:13.990Z,96.70
2019-04-06T22:39:52.540Z,96.30
2019-04-06T22:42:30.481Z,96.90
2019-04-06T22:50:19.892Z,96.10
2019-04-06T22:52:58.334Z,95.80
2019-04-06T22:55:36.543Z,95.50
2019-04-06T22:58:15.295Z,95.80
2019-04-06T23:01:02.850Z,95.60
2019-04-06T23:04:16.009Z,95.90
2019-04-06T23:07:00.683Z,95.70
2019-04-06T23:09:38.482Z,95.60
2019-04-06T23:12:16.735Z,95.80
2019-04-06T23:14:55.472Z,87.20
2019-04-06T23:17:33.183Z,95.00
2019-04-06T23:20:11.210Z,95.10
2019-04-06T23:22:49.025Z,94.60
2019-04-06T23:28:01.993Z,94.90
2019-04-06T23:33:15.109Z,85.10
2019-04-06T23:35:54.455Z,95.90
2019-04-06T23:38:31.537Z,85.10
2019-04-06T23:41:09.391Z,84.30
2019-04-06T23:43:47.151Z,84.00
2019-04-06T23:46:25.733Z,83.60
2019-04-06T23:49:03.384Z,83.60
2019-04-06T23:51:41.473Z,95.50
2019-04-06T23:54:19.251Z,82.80
2019-04-06T23:56:56.932Z,83.40
2019-04-06T23:59:35.127Z,82.90
